createdAt,value
2022-08-28T00:00:15.964Z,66.85
2022-08-28T00:02:42.872Z,67.33
2022-08-28T00:05:11.620Z,67.46
2022-08-28T00:07:38.433Z,67.72
2022-08-28T00:10:07.136Z,67.60
2022-08-28T00:12:34.781Z,67.79
2022-08-28T00:15:01.483Z,67.58
2022-08-28T00:17:28.062Z,67.59
2022-08-28T00:19:54.577Z,67.63
2022-08-28T00:22:21.125Z,67.72
2022-08-28T00:24:48.111Z,67.74
2022-08-28T00:27:33.293Z,67.11
2022-08-28T00:29:59.828Z,67.45
2022-08-28T00:32:27.019Z,67.69
2022-08-28T00:34:53.655Z,67.66
2022-08-28T00:37:20.154Z,67.96
2022-08-28T00:39:51.418Z,67.94
2022-08-28T00:42:18.324Z,68.41
2022-08-28T00:44:45.300Z,68.00
2022-08-28T00:47:12.446Z,67.83
2022-08-28T00:49:47.461Z,68.14
2022-08-28T00:52:16.015Z,68.24
2022-08-28T00:54:58.418Z,68.26
2022-08-28T00:57:34.232Z,68.14
2022-08-28T01:00:01.627Z,68.54
2022-08-28T01:02:28.252Z,68.40
2022-08-28T01:04:55.378Z,68.25
2022-08-28T01:07:23.167Z,68.06
2022-08-28T01:09:54.133Z,68.67
2022-08-28T01:12:28.125Z,68.59
2022-08-28T01:15:00.138Z,68.41
2022-08-28T01:17:31.497Z,68.72
2022-08-28T01:20:06.520Z,68.60
2022-08-28T01:22:40.304Z,68.99
2022-08-28T01:25:14.318Z,68.74
2022-08-28T01:27:44.401Z,68.51
2022-08-28T01:30:14.289Z,68.32
2022-08-28T01:32:47.921Z,68.40
2022-08-28T01:35:19.957Z,68.47
2022-08-28T01:37:47.007Z,68.76
2022-08-28T01:40:20.370Z,68.41
2022-08-28T01:42:46.999Z,68.74
2022-08-28T01:45:17.028Z,68.24
2022-08-28T01:47:45.753Z,68.46
2022-08-28T01:50:20.708Z,68.05
2022-08-28T01:52:47.240Z,67.62
2022-08-28T01:55:14.043Z,67.92
2022-08-28T01:57:45.958Z,68.10
2022-08-28T02:00:14.407Z,67.82
2022-08-28T02:02:41.261Z,67.59
2022-08-28T02:05:09.129Z,67.98
2022-08-28T02:07:36.348Z,67.98
2022-08-28T02:10:04.601Z,68.16
2022-08-28T02:12:31.877Z,68.15
2022-08-28T02:14:58.360Z,68.59
2022-08-28T02:17:24.836Z,68.06
2022-08-28T02:19:51.709Z,68.05
2022-08-28T02:22:18.485Z,68.24
2022-08-28T02:24:45.290Z,68.03
2022-08-28T02:27:12.024Z,68.16
2022-08-28T02:29:39.224Z,68.19
2022-08-28T02:32:06.142Z,68.14
2022-08-28T02:34:34.592Z,68.04
2022-08-28T02:37:01.080Z,67.97
2022-08-28T02:39:28.119Z,67.66
2022-08-28T02:41:54.665Z,67.88
2022-08-28T02:44:21.296Z,67.85
2022-08-28T02:46:47.761Z,68.05
2022-08-28T02:49:14.516Z,67.93
2022-08-28T02:51:42.291Z,67.82
2022-08-28T02:54:08.768Z,67.54
2022-08-28T02:56:35.283Z,67.48
2022-08-28T02:59:01.793Z,67.42
2022-08-28T03:01:28.321Z,67.76
2022-08-28T03:03:54.895Z,68.05
2022-08-28T03:06:22.990Z,67.83
2022-08-28T03:08:49.529Z,67.56
2022-08-28T03:11:15.994Z,67.46
2022-08-28T03:13:42.494Z,67.06
2022-08-28T03:16:09.020Z,67.21
2022-08-28T03:18:35.576Z,67.68
2022-08-28T03:21:02.141Z,67.84
2022-08-28T03:23:29.095Z,67.77
2022-08-28T03:26:14.769Z,67.91
2022-08-28T03:28:47.319Z,67.83
2022-08-28T03:31:18.027Z,67.49
2022-08-28T03:33:45.917Z,67.99
2022-08-28T03:36:15.481Z,67.95
2022-08-28T03:38:42.255Z,67.93
2022-08-28T03:41:14.496Z,68.21
2022-08-28T03:43:41.479Z,68.48
2022-08-28T03:46:12.522Z,68.34
2022-08-28T03:48:39.023Z,68.58
2022-08-28T03:51:17.553Z,68.41
2022-08-28T03:53:45.203Z,68.57
2022-08-28T03:56:15.498Z,68.42
2022-08-28T03:58:43.192Z,68.27
2022-08-28T04:01:10.922Z,68.48
2022-08-28T04:03:37.496Z,68.46
2022-08-28T04:06:04.279Z,68.49
2022-08-28T04:08:30.992Z,68.44
2022-08-28T04:11:01.924Z,68.62
2022-08-28T04:13:29.501Z,68.79
2022-08-28T04:16:10.642Z,68.43
2022-08-28T04:18:42.972Z,68.81
2022-08-28T04:21:28.046Z,68.49
2022-08-28T04:23:55.305Z,68.11
2022-08-28T04:26:25.796Z,68.60
2022-08-28T04:28:53.805Z,68.26
2022-08-28T04:31:32.222Z,68.37
2022-08-28T04:34:04.872Z,68.33
2022-08-28T04:36:33.498Z,68.48
2022-08-28T04:39:00.623Z,68.33
2022-08-28T04:41:28.401Z,68.13
2022-08-28T04:43:57.178Z,68.48
2022-08-28T04:46:24.232Z,68.62
2022-08-28T04:48:50.785Z,68.39
2022-08-28T04:51:17.267Z,68.80
2022-08-28T04:53:44.159Z,67.79
2022-08-28T04:56:12.917Z,67.80
2022-08-28T04:58:41.513Z,67.59
2022-08-28T05:01:12.758Z,67.65
2022-08-28T05:03:40.039Z,67.48
2022-08-28T05:06:07.158Z,67.66
2022-08-28T05:08:34.012Z,66.92
2022-08-28T05:11:30.705Z,67.20
2022-08-28T05:14:04.227Z,66.56
2022-08-28T05:16:31.032Z,66.49
2022-08-28T05:19:01.611Z,66.59
2022-08-28T05:21:28.258Z,65.92
2022-08-28T05:23:57.383Z,65.96
2022-08-28T05:26:26.780Z,65.67
2022-08-28T05:28:56.625Z,65.73
2022-08-28T05:31:24.463Z,65.45
2022-08-28T05:33:52.673Z,65.54
2022-08-28T05:36:22.049Z,65.38
2022-08-28T05:38:49.381Z,65.07
2022-08-28T05:41:24.853Z,65.25
2022-08-28T05:43:53.540Z,64.51
2022-08-28T05:46:20.742Z,63.89
2022-08-28T05:48:49.343Z,63.74
2022-08-28T05:51:20.071Z,63.80
2022-08-28T05:53:49.852Z,63.40
2022-08-28T05:56:21.462Z,63.33
2022-08-28T05:58:48.104Z,63.02
2022-08-28T06:01:17.926Z,62.74
2022-08-28T06:03:50.823Z,62.57
2022-08-28T06:06:17.449Z,62.55
2022-08-28T06:08:56.349Z,62.46
2022-08-28T06:11:30.387Z,62.10
2022-08-28T06:14:01.802Z,61.65
2022-08-28T06:16:31.583Z,61.66
2022-08-28T06:18:58.220Z,62.15
2022-08-28T06:21:24.803Z,61.12
2022-08-28T06:23:51.775Z,61.29
2022-08-28T06:26:18.817Z,61.54
2022-08-28T06:28:45.334Z,61.18
2022-08-28T06:31:25.029Z,60.93
2022-08-28T06:33:54.871Z,61.03
2022-08-28T06:36:22.499Z,60.99
2022-08-28T06:38:49.500Z,60.97
2022-08-28T06:41:16.604Z,60.65
2022-08-28T06:43:43.193Z,60.67
2022-08-28T06:46:09.922Z,60.52
2022-08-28T06:48:36.697Z,60.52
2022-08-28T06:51:07.071Z,60.31
2022-08-28T06:53:33.879Z,60.55
2022-08-28T06:56:02.182Z,59.81
2022-08-28T06:58:29.109Z,59.09
2022-08-28T07:01:03.943Z,58.89
2022-08-28T07:03:30.507Z,58.95
2022-08-28T07:05:58.660Z,58.62
2022-08-28T07:08:27.699Z,58.69
2022-08-28T07:10:54.486Z,58.62
2022-08-28T07:13:22.229Z,58.03
2022-08-28T07:15:49.113Z,57.98
2022-08-28T07:18:15.931Z,57.99
2022-08-28T07:20:42.410Z,58.01
2022-08-28T07:23:08.957Z,57.94
2022-08-28T07:25:40.472Z,57.54
2022-08-28T07:28:07.929Z,57.59
2022-08-28T07:30:34.420Z,57.68
2022-08-28T07:33:00.922Z,57.24
2022-08-28T07:35:27.475Z,57.91
2022-08-28T07:37:53.959Z,57.81
2022-08-28T07:40:22.244Z,57.24
2022-08-28T07:43:07.490Z,57.34
2022-08-28T07:45:35.449Z,57.25
2022-08-28T07:48:11.364Z,57.70
2022-08-28T07:50:38.221Z,57.80
2022-08-28T07:53:08.089Z,57.81
2022-08-28T07:55:34.570Z,57.68
2022-08-28T07:58:01.557Z,57.92
2022-08-28T08:00:28.159Z,57.89
2022-08-28T08:02:54.658Z,57.65
2022-08-28T08:05:21.200Z,57.87
2022-08-28T08:07:47.709Z,57.40
2022-08-28T08:10:14.949Z,57.32
2022-08-28T08:12:47.117Z,57.04
2022-08-28T08:15:13.629Z,56.93
2022-08-28T08:17:40.389Z,56.60
2022-08-28T08:20:08.532Z,56.61
2022-08-28T08:22:35.872Z,56.25
2022-08-28T08:25:05.504Z,56.22
2022-08-28T08:27:38.806Z,55.94
2022-08-28T08:30:08.294Z,55.63
2022-08-28T08:32:34.836Z,55.68
2022-08-28T08:35:01.691Z,55.45
2022-08-28T08:37:28.198Z,55.01
2022-08-28T08:39:54.844Z,54.75
2022-08-28T08:42:27.737Z,54.11
2022-08-28T08:44:57.379Z,54.02
2022-08-28T08:47:36.441Z,54.06
2022-08-28T08:50:24.063Z,53.55
2022-08-28T08:53:46.408Z,53.41
2022-08-28T08:56:16.812Z,53.72
2022-08-28T08:58:49.958Z,53.41
2022-08-28T09:01:39.489Z,53.02
2022-08-28T09:04:22.126Z,52.91
2022-08-28T09:06:52.547Z,52.66
2022-08-28T09:09:37.835Z,52.24
2022-08-28T09:12:07.224Z,51.72
2022-08-28T09:14:41.586Z,51.13
2022-08-28T09:17:10.194Z,50.77
2022-08-28T09:19:36.767Z,50.70
2022-08-28T09:22:03.792Z,49.93
2022-08-28T09:24:33.794Z,49.58
2022-08-28T09:27:24.342Z,48.60
2022-08-28T09:30:07.457Z,48.57
2022-08-28T09:32:43.535Z,48.44
2022-08-28T09:35:25.804Z,48.64
2022-08-28T09:37:52.429Z,48.66
2022-08-28T09:40:48.339Z,47.59
2022-08-28T09:43:28.440Z,47.51
2022-08-28T09:46:05.626Z,47.44
2022-08-28T09:48:39.230Z,47.69
2022-08-28T09:51:25.706Z,47.14
2022-08-28T09:53:52.137Z,47.32
2022-08-28T09:56:27.939Z,47.30
2022-08-28T09:59:00.501Z,46.95
2022-08-28T10:01:50.757Z,46.39
2022-08-28T10:04:41.293Z,45.91
2022-08-28T10:07:22.361Z,45.82
2022-08-28T10:10:26.494Z,45.83
2022-08-28T10:12:59.360Z,46.30
2022-08-28T10:15:31.848Z,46.04
2022-08-28T10:18:34.167Z,45.18
2022-08-28T10:21:14.811Z,45.68
2022-08-28T10:23:57.238Z,45.53
2022-08-28T10:26:55.145Z,45.62
2022-08-28T10:29:30.730Z,45.61
2022-08-28T10:32:32.658Z,44.80
2022-08-28T10:35:01.969Z,45.21
2022-08-28T10:37:55.699Z,44.85
2022-08-28T10:40:29.878Z,44.47
2022-08-28T10:43:19.982Z,44.85
2022-08-28T10:45:49.448Z,44.14
2022-08-28T10:48:25.085Z,43.47
2022-08-28T10:51:16.283Z,43.47
2022-08-28T10:53:54.560Z,43.37
2022-08-28T10:56:25.961Z,43.42
2022-08-28T10:58:58.954Z,43.04
2022-08-28T11:01:32.896Z,43.37
2022-08-28T11:04:03.179Z,43.40
2022-08-28T11:06:53.058Z,42.76
2022-08-28T11:09:42.815Z,42.09
2022-08-28T11:12:19.716Z,42.58
2022-08-28T11:14:50.054Z,42.91
2022-08-28T11:17:22.900Z,43.27
2022-08-28T11:20:03.304Z,42.58
2022-08-28T11:22:45.427Z,43.13
2022-08-28T11:25:15.010Z,42.92
2022-08-28T11:28:14.389Z,42.80
2022-08-28T11:30:42.846Z,42.55
2022-08-28T11:33:44.485Z,42.25
2022-08-28T11:36:19.810Z,42.34
2022-08-28T11:38:46.831Z,42.39
2022-08-28T11:41:20.930Z,42.45
2022-08-28T11:43:52.302Z,42.19
2022-08-28T11:46:31.532Z,41.67
2022-08-28T11:49:27.263Z,41.51
2022-08-28T11:52:27.310Z,41.67
2022-08-28T11:55:24.724Z,41.16
2022-08-28T12:00:53.937Z,41.31
2022-08-28T12:03:42.688Z,40.95
2022-08-28T12:06:10.841Z,41.13
2022-08-28T12:08:51.270Z,40.87
2022-08-28T12:11:39.304Z,41.09
2022-08-28T12:14:11.401Z,41.00
2022-08-28T12:17:15.949Z,41.24
2022-08-28T12:19:58.472Z,41.17
2022-08-28T12:22:39.482Z,40.73
2022-08-28T12:25:15.233Z,40.20
2022-08-28T12:27:41.973Z,40.39
2022-08-28T12:30:08.761Z,40.44
2022-08-28T12:32:59.929Z,40.33
2022-08-28T12:35:29.867Z,40.25
2022-08-28T12:37:57.283Z,39.96
2022-08-28T12:40:50.169Z,39.40
2022-08-28T12:43:27.719Z,39.20
2022-08-28T12:46:01.107Z,39.36
2022-08-28T12:48:34.991Z,38.94
2022-08-28T12:51:06.033Z,39.07
2022-08-28T12:53:45.604Z,38.91
2022-08-28T12:56:15.850Z,37.94
2022-08-28T12:58:42.768Z,38.39
2022-08-28T13:01:21.689Z,38.09
2022-08-28T13:04:01.555Z,37.61
2022-08-28T13:06:30.665Z,38.09
2022-08-28T13:09:14.976Z,37.47
2022-08-28T13:11:47.573Z,37.54
2022-08-28T13:14:14.613Z,37.17
2022-08-28T13:16:47.039Z,35.83
2022-08-28T13:19:35.017Z,35.84
2022-08-28T13:22:09.261Z,35.79
2022-08-28T13:24:39.572Z,35.87
2022-08-28T13:27:12.127Z,36.30
2022-08-28T13:29:57.296Z,36.21
2022-08-28T13:32:27.339Z,36.66
2022-08-28T13:35:18.122Z,36.85
2022-08-28T13:37:53.349Z,36.74
2022-08-28T13:41:03.106Z,36.61
2022-08-28T13:43:43.384Z,36.34
2022-08-28T13:46:10.267Z,36.42
2022-08-28T13:48:36.778Z,36.60
2022-08-28T13:51:10.493Z,36.80
2022-08-28T13:53:38.449Z,36.42
2022-08-28T13:56:05.401Z,36.93
2022-08-28T13:58:32.033Z,36.76
2022-08-28T14:00:59.012Z,36.79
2022-08-28T14:03:41.270Z,36.72
2022-08-28T14:06:11.687Z,36.87
2022-08-28T14:08:43.666Z,37.09
2022-08-28T14:11:12.699Z,37.39
2022-08-28T14:13:40.886Z,37.13
2022-08-28T14:16:16.783Z,36.77
2022-08-28T14:18:43.443Z,36.64
2022-08-28T14:21:10.097Z,35.92
2022-08-28T14:23:36.620Z,35.78
2022-08-28T14:26:05.727Z,36.13
2022-08-28T14:28:32.438Z,35.76
2022-08-28T14:30:58.909Z,35.87
2022-08-28T14:33:25.392Z,35.73
2022-08-28T14:35:51.923Z,35.88
2022-08-28T14:38:18.486Z,35.24
2022-08-28T14:40:45.573Z,35.84
2022-08-28T14:43:13.654Z,35.95
2022-08-28T14:45:49.600Z,35.70
2022-08-28T14:48:18.200Z,36.08
2022-08-28T14:50:46.440Z,36.42
2022-08-28T14:53:14.099Z,36.24
2022-08-28T14:55:46.407Z,36.60
2022-08-28T14:58:13.968Z,35.99
2022-08-28T15:00:43.372Z,35.59
2022-08-28T15:03:10.277Z,36.00
2022-08-28T15:05:36.882Z,35.39
2022-08-28T15:08:07.694Z,34.87
2022-08-28T15:10:34.592Z,34.62
2022-08-28T15:13:01.073Z,34.28
2022-08-28T15:15:27.570Z,34.16
2022-08-28T15:17:54.301Z,34.23
2022-08-28T15:20:20.881Z,34.21
2022-08-28T15:22:47.423Z,33.65
2022-08-28T15:25:14.193Z,34.12
2022-08-28T15:27:40.729Z,33.78
2022-08-28T15:30:07.834Z,34.27
2022-08-28T15:32:34.428Z,34.36
2022-08-28T15:35:01.002Z,33.88
2022-08-28T15:37:29.346Z,34.19
2022-08-28T15:40:16.825Z,34.45
2022-08-28T15:42:44.487Z,34.16
2022-08-28T15:45:12.155Z,34.03
2022-08-28T15:47:38.694Z,33.82
2022-08-28T15:50:05.918Z,34.01
2022-08-28T15:52:33.030Z,33.26
2022-08-28T15:54:59.539Z,33.93
2022-08-28T15:57:26.132Z,34.06
2022-08-28T15:59:52.620Z,33.86
2022-08-28T16:02:22.033Z,33.72
2022-08-28T16:04:49.384Z,33.39
2022-08-28T16:07:16.867Z,33.40
2022-08-28T16:09:43.390Z,33.36
2022-08-28T16:12:09.952Z,33.41
2022-08-28T16:14:36.556Z,33.66
2022-08-28T16:17:05.974Z,33.66
2022-08-28T16:19:39.821Z,33.22
2022-08-28T16:22:06.987Z,33.10
2022-08-28T16:24:33.778Z,33.14
2022-08-28T16:27:00.368Z,33.28
2022-08-28T16:29:26.896Z,33.33
2022-08-28T16:31:53.486Z,33.50
2022-08-28T16:34:20.348Z,33.31
2022-08-28T16:36:48.271Z,33.70
2022-08-28T16:39:15.112Z,33.45
2022-08-28T16:41:43.101Z,33.38
2022-08-28T16:44:09.612Z,33.63
2022-08-28T16:46:36.168Z,33.55
2022-08-28T16:49:03.221Z,33.59
2022-08-28T16:51:29.906Z,33.39
2022-08-28T16:53:56.668Z,33.80
2022-08-28T16:56:24.877Z,33.94
2022-08-28T16:58:53.052Z,33.41
2022-08-28T17:01:23.892Z,33.34
2022-08-28T17:03:52.529Z,33.64
2022-08-28T17:06:23.319Z,33.71
2022-08-28T17:08:55.905Z,33.79
2022-08-28T17:11:24.447Z,33.63
2022-08-28T17:13:50.948Z,33.55
2022-08-28T17:16:18.672Z,34.06
2022-08-28T17:18:47.473Z,33.92
2022-08-28T17:21:33.249Z,33.67
2022-08-28T17:24:01.182Z,33.95
2022-08-28T17:26:27.683Z,33.55
2022-08-28T17:28:54.296Z,33.83
2022-08-28T17:31:20.886Z,34.00
2022-08-28T17:33:47.434Z,34.28
2022-08-28T17:36:28.930Z,34.24
2022-08-28T17:39:02.249Z,34.30
2022-08-28T17:41:28.916Z,34.37
2022-08-28T17:43:55.464Z,34.72
2022-08-28T17:46:22.512Z,35.03
2022-08-28T17:48:54.462Z,35.45
2022-08-28T17:51:33.211Z,35.49
2022-08-28T17:54:15.472Z,35.91
2022-08-28T17:56:42.153Z,36.25
2022-08-28T17:59:09.240Z,36.56
2022-08-28T18:01:36.050Z,36.48
2022-08-28T18:04:02.909Z,37.00
2022-08-28T18:06:29.385Z,37.33
2022-08-28T18:08:55.870Z,37.33
2022-08-28T18:11:22.528Z,37.82
2022-08-28T18:13:49.417Z,37.86
2022-08-28T18:16:16.644Z,38.13
2022-08-28T18:18:43.494Z,37.93
2022-08-28T18:21:10.873Z,38.31
2022-08-28T18:23:39.456Z,38.52
2022-08-28T18:26:07.309Z,38.64
2022-08-28T18:28:33.961Z,38.68
2022-08-28T18:31:03.580Z,39.00
2022-08-28T18:33:30.317Z,39.30
2022-08-28T18:35:56.924Z,39.43
2022-08-28T18:38:28.052Z,39.58
2022-08-28T18:40:55.807Z,39.66
2022-08-28T18:43:22.564Z,40.12
2022-08-28T18:45:49.586Z,40.36
2022-08-28T18:48:16.538Z,40.58
2022-08-28T18:50:46.332Z,41.09
2022-08-28T18:53:14.680Z,41.86
2022-08-28T18:55:41.293Z,41.59
2022-08-28T18:58:07.889Z,42.01
2022-08-28T19:00:36.929Z,41.77
2022-08-28T19:03:03.696Z,41.92
2022-08-28T19:05:30.723Z,41.82
2022-08-28T19:08:00.086Z,41.74
2022-08-28T19:10:33.966Z,42.03
2022-08-28T19:13:01.653Z,41.93
2022-08-28T19:15:28.784Z,41.98
2022-08-28T19:17:55.632Z,41.88
2022-08-28T19:20:23.034Z,42.14
2022-08-28T19:22:49.884Z,42.29
2022-08-28T19:25:28.467Z,42.38
2022-08-28T19:27:59.211Z,42.46
2022-08-28T19:30:27.420Z,42.41
2022-08-28T19:32:54.080Z,42.70
2022-08-28T19:35:20.848Z,42.54
2022-08-28T19:37:51.481Z,42.92
2022-08-28T19:40:18.096Z,42.67
2022-08-28T19:42:44.626Z,42.91
2022-08-28T19:45:13.889Z,43.47
2022-08-28T19:47:40.755Z,43.63
2022-08-28T19:50:10.593Z,43.93
2022-08-28T19:52:37.430Z,44.36
2022-08-28T19:55:06.030Z,44.61
2022-08-28T19:57:33.649Z,45.03
2022-08-28T20:00:00.366Z,44.64
2022-08-28T20:02:28.510Z,44.88
2022-08-28T20:04:55.414Z,44.81
2022-08-28T20:07:22.331Z,44.67
2022-08-28T20:09:48.911Z,44.53
2022-08-28T20:12:15.490Z,44.44
2022-08-28T20:14:42.598Z,44.07
2022-08-28T20:17:09.505Z,44.18
2022-08-28T20:19:36.032Z,44.40
2022-08-28T20:22:03.750Z,45.03
2022-08-28T20:24:30.548Z,45.68
2022-08-28T20:26:57.322Z,46.31
2022-08-28T20:29:24.293Z,46.46
2022-08-28T20:31:51.674Z,46.69
2022-08-28T20:34:19.221Z,47.05
2022-08-28T20:36:46.140Z,47.12
2022-08-28T20:39:12.808Z,47.52
2022-08-28T20:41:41.076Z,47.70
2022-08-28T20:44:09.330Z,47.75
2022-08-28T20:46:40.864Z,47.73
2022-08-28T20:49:12.512Z,47.80
2022-08-28T20:52:00.982Z,47.81
2022-08-28T20:54:29.358Z,48.03
2022-08-28T20:56:58.051Z,48.30
2022-08-28T20:59:28.777Z,48.66
2022-08-28T21:02:05.293Z,48.79
2022-08-28T21:04:35.746Z,48.94
2022-08-28T21:07:02.342Z,49.23
2022-08-28T21:09:33.468Z,49.34
2022-08-28T21:12:16.659Z,49.12
2022-08-28T21:14:44.312Z,49.39
2022-08-28T21:17:18.517Z,49.39
2022-08-28T21:19:55.868Z,49.81
2022-08-28T21:22:22.458Z,49.93
2022-08-28T21:24:48.982Z,50.32
2022-08-28T21:27:15.499Z,50.42
2022-08-28T21:29:45.818Z,50.71
2022-08-28T21:32:12.727Z,50.29
2022-08-28T21:34:39.358Z,50.73
2022-08-28T21:37:06.358Z,50.85
2022-08-28T21:39:33.091Z,50.64
2022-08-28T21:41:59.648Z,50.36
2022-08-28T21:44:26.249Z,50.37
2022-08-28T21:46:53.018Z,49.93
2022-08-28T21:49:19.991Z,50.11
2022-08-28T21:51:46.520Z,50.71
2022-08-28T21:54:13.229Z,51.27
2022-08-28T21:56:39.987Z,51.30
2022-08-28T21:59:06.490Z,51.56
2022-08-28T22:01:33.179Z,51.58
2022-08-28T22:03:59.743Z,51.72
2022-08-28T22:06:27.099Z,51.45
2022-08-28T22:08:54.927Z,51.89
2022-08-28T22:11:24.864Z,52.00
2022-08-28T22:13:52.339Z,52.14
2022-08-28T22:16:21.516Z,52.66
2022-08-28T22:18:48.067Z,52.78
2022-08-28T22:21:37.087Z,52.87
2022-08-28T22:24:04.669Z,53.22
2022-08-28T22:26:31.326Z,53.22
2022-08-28T22:28:58.142Z,53.57
2022-08-28T22:31:24.747Z,54.00
2022-08-28T22:33:52.145Z,54.54
2022-08-28T22:36:20.550Z,54.57
2022-08-28T22:38:53.389Z,55.03
2022-08-28T22:41:20.625Z,54.68
2022-08-28T22:43:51.376Z,54.83
2022-08-28T22:46:20.413Z,54.79
2022-08-28T22:48:47.265Z,55.26
2022-08-28T22:51:18.236Z,55.65
2022-08-28T22:53:45.269Z,55.57
2022-08-28T22:56:12.348Z,55.92
2022-08-28T22:58:39.482Z,55.78
2022-08-28T23:01:12.467Z,55.56
2022-08-28T23:03:40.693Z,55.52
2022-08-28T23:06:07.613Z,55.70
2022-08-28T23:08:34.453Z,56.13
2022-08-28T23:11:01.387Z,56.10
2022-08-28T23:13:29.555Z,55.94
2022-08-28T23:15:56.344Z,56.14
2022-08-28T23:18:22.991Z,56.45
2022-08-28T23:20:50.648Z,57.06
2022-08-28T23:23:19.262Z,56.59
2022-08-28T23:25:45.781Z,56.91
2022-08-28T23:28:12.488Z,56.68
2022-08-28T23:30:41.268Z,56.90
2022-08-28T23:33:19.756Z,57.20
2022-08-28T23:35:51.243Z,57.20
2022-08-28T23:38:17.901Z,56.98
2022-08-28T23:40:44.571Z,56.69
2022-08-28T23:43:11.969Z,57.21
2022-08-28T23:45:40.674Z,57.02
2022-08-28T23:48:08.346Z,57.67
2022-08-28T23:50:35.352Z,57.33
2022-08-28T23:53:04.434Z,57.31
2022-08-28T23:55:31.747Z,56.94
2022-08-28T23:58:00.187Z,57.58
